Igor I Sikorsky Memorial Airport
KBDR : now visible

Airfield :











YOU CAN JOIN US ON...

 
LOGIN :

Register | Disclaimer

   EN    FR    IT 

 









Legend :    VFR   Marginal VFR   IFR   Intensive IFR   Very Intensive IFR
Visi :
Ceiling :
>= 8 km
>= 3000ft
5 to 8 km
1000 to 3000 ft
1500m to 5 km
500 to 1000 ft
800 to 1500m
200 to 500 ft
< 800m
< 200 ft
Symbols :   Thunderstorms  Fog  Heavy snow  Heavy precipitations  Wind > 20 kt






- Airport Elevation : 9 ft
- IATA code : BDR


KBDR - Igor I Sikorsky Memorial

CURRENT METAR :
  • 161752Z 23012KT 10SM BKN100 OVC120 03/M03 A3012 RMK AO2 SLP197 T00331028 10039 20000 58025

EXPIRED METARs :
  • 161652Z 23011KT 10SM FEW085 BKN100 03/M03 A3014 RMK AO2 SLP206 T00331033
  • 161552Z 23011KT 10SM CLR 03/M03 A3017 RMK AO2 SLP215 T00281028

TAF KBDR
Valid from the 16 at 18:00 until the 17 at 18:00 UTC


161737Z 1618/1718 23011KT P6SM FEW060 BKN100 BKN200
FM162300 25008KT P6SM SCT060 BKN100 BKN150
FM170300 28005KT P6SM BKN060 BKN100 BKN250
FM170900 34005KT P6SM SCT060 BKN250
FM171500 34008KT P6SM SCT060 BKN250



MET'MAP, your aeronautical weather chart ! - Copyright ORBIFLY December 2007 - Disclaimer

ORBIFLY MET'MAP TEAM :

Programming & Development : Alexandra Zaïnal
Concept & original design : Baudouin d'Aumeries
Assistance for programming : Marc-Olivier Méhu
Technical & hardware support : Manuel Goepfert

Contact : metmap@orbifly.com




SOURCES & CREDITS :

   NOAA       Earth
Advisory